Time;durP1;ratioP1;P1;durP2;ratioP2;P2;SDS_P1;SDS_P2;PMS_P1;PMS_P2;Temp;Humidity;BMP_temperature;BMP_pressure;BME280_temperature;BME280_humidity;BME280_pressure;Samples;Min_cycle;Max_cycle;Signal;HPM_P1;HPM_P2
2021/11/17 02:26:15;;;;;;;18.17;9.87;;;5.40;99.90;;;;;;4944651;28;20510;-63
2021/11/17 02:29:20;;;;;;;17.90;10.17;;;5.40;99.90;;;;;;4947732;29;20488;-63
2021/11/17 02:32:01;;;;;;;17.07;9.23;;;5.40;99.90;;;;;;4943069;29;20541;-63
2021/11/17 02:34:44;;;;;;;14.97;9.67;;;5.40;99.90;;;;;;4948037;29;21021;-63
2021/11/17 02:37:38;;;;;;;15.70;8.67;;;5.40;99.90;;;;;;4948173;29;20643;-63
2021/11/17 02:40:26;;;;;;;15.83;9.17;;;5.50;99.90;;;;;;4945825;29;20572;-63
2021/11/17 02:43:09;;;;;;;16.90;9.13;;;5.50;99.90;;;;;;4943604;29;20532;-63
2021/11/17 02:46:06;;;;;;;15.57;8.77;;;5.50;99.90;;;;;;4948093;29;20499;-63
2021/11/17 02:48:53;;;;;;;15.53;8.67;;;5.50;99.90;;;;;;4929036;29;20240;-66
2021/11/17 02:51:49;;;;;;;18.00;9.50;;;5.60;99.90;;;;;;4928811;29;20479;-66
2021/11/17 02:54:42;;;;;;;17.73;9.07;;;5.50;99.90;;;;;;4927343;29;20483;-66
2021/11/17 02:57:38;;;;;;;15.97;8.80;;;5.40;99.90;;;;;;4929529;29;20656;-66
2021/11/17 03:00:34;;;;;;;17.33;9.07;;;5.50;99.90;;;;;;4926373;28;20283;-66
2021/11/17 03:03:20;;;;;;;20.07;9.50;;;5.50;99.90;;;;;;4925720;29;20712;-66
2021/11/17 03:06:09;;;;;;;17.53;9.57;;;5.40;99.90;;;;;;4926526;28;20243;-66
2021/11/17 03:08:54;;;;;;;19.47;10.23;;;5.50;99.90;;;;;;4922573;29;20240;-66
2021/11/17 03:11:38;;;;;;;17.80;9.10;;;5.50;99.90;;;;;;4929284;29;20984;-66
2021/11/17 03:14:31;;;;;;;20.07;10.60;;;5.50;99.90;;;;;;4928924;29;20475;-66
2021/11/17 03:17:21;;;;;;;18.50;9.73;;;5.40;99.90;;;;;;4929271;29;20321;-66
2021/11/17 03:20:01;;;;;;;18.63;10.30;;;5.50;99.90;;;;;;4923880;29;20840;-66
2021/11/17 03:22:42;;;;;;;17.70;10.13;;;5.40;99.90;;;;;;4920605;28;20537;-66
2021/11/17 03:25:30;;;;;;;17.70;9.97;;;5.50;99.90;;;;;;4928589;29;20298;-66
2021/11/17 03:28:13;;;;;;;18.73;10.80;;;5.50;99.90;;;;;;4928663;29;20249;-66
2021/11/17 03:31:17;;;;;;;21.13;10.77;;;5.40;99.90;;;;;;4927262;29;20983;-66
2021/11/17 03:34:18;;;;;;;19.33;10.07;;;5.40;99.90;;;;;;4928657;29;20244;-66
2021/11/17 03:37:02;;;;;;;18.83;10.57;;;5.40;99.90;;;;;;4928359;29;20730;-66
2021/11/17 03:39:52;;;;;;;19.03;11.03;;;5.40;99.90;;;;;;4930755;29;20263;-66
2021/11/17 03:43:10;;;;;;;21.50;10.93;;;5.30;99.90;;;;;;4931436;28;20491;-66
2021/11/17 03:45:51;;;;;;;19.30;10.70;;;5.30;99.90;;;;;;4849503;29;20878;-66
2021/11/17 03:48:34;;;;;;;19.27;10.60;;;5.30;99.90;;;;;;4857302;29;20246;-66
2021/11/17 03:51:26;;;;;;;19.53;10.83;;;5.30;99.90;;;;;;4910679;29;20321;-66
2021/11/17 03:54:11;;;;;;;20.73;10.47;;;5.30;99.90;;;;;;4927815;29;20262;-66
2021/11/17 03:56:57;;;;;;;18.20;10.10;;;5.60;99.90;;;;;;4929610;29;20267;-66
2021/11/17 03:59:46;;;;;;;19.97;10.83;;;5.60;99.90;;;;;;4931408;29;20278;-66
2021/11/17 04:02:32;;;;;;;19.87;11.70;;;5.60;99.90;;;;;;4932394;29;20476;-66
2021/11/17 04:05:15;;;;;;;21.40;9.97;;;5.40;99.90;;;;;;4927987;29;20474;-66
2021/11/17 04:08:01;;;;;;;21.47;11.43;;;5.60;99.90;;;;;;4926333;29;20276;-66
2021/11/17 04:10:44;;;;;;;21.40;11.50;;;5.60;99.90;;;;;;4927999;29;20287;-66
2021/11/17 04:13:21;;;;;;;19.13;9.30;;;5.50;99.90;;;;;;4931190;29;21220;-66
2021/11/17 04:16:01;;;;;;;20.13;10.43;;;5.50;99.90;;;;;;4931342;29;20243;-66
2021/11/17 04:18:43;;;;;;;18.57;10.30;;;5.60;99.90;;;;;;4923761;29;20244;-66
2021/11/17 04:21:27;;;;;;;22.37;11.87;;;5.50;99.90;;;;;;4931321;28;20483;-66
2021/11/17 04:24:28;;;;;;;20.27;10.03;;;5.60;99.90;;;;;;4931178;29;20666;-66
2021/11/17 04:27:23;;;;;;;18.83;9.90;;;5.60;99.90;;;;;;4927692;29;20604;-66
2021/11/17 04:30:26;;;;;;;22.43;10.73;;;5.50;99.90;;;;;;4925844;28;20922;-66
2021/11/17 04:33:43;;;;;;;21.47;11.37;;;5.40;99.90;;;;;;4927318;29;20294;-66
2021/11/17 04:36:33;;;;;;;21.03;10.37;;;5.50;99.90;;;;;;4885943;29;20723;-66
2021/11/17 04:39:30;;;;;;;19.43;10.87;;;5.50;99.90;;;;;;4928224;29;20327;-66
2021/11/17 04:42:21;;;;;;;21.37;11.00;;;5.40;99.90;;;;;;4927383;29;20612;-66
2021/11/17 04:45:05;;;;;;;18.50;10.73;;;5.40;99.90;;;;;;4929535;29;20290;-65
2021/11/17 04:47:50;;;;;;;20.07;9.73;;;5.40;99.90;;;;;;4940286;29;20733;-66
2021/11/17 04:50:32;;;;;;;19.70;9.83;;;5.40;99.90;;;;;;4948637;28;20266;-66
2021/11/17 04:53:14;;;;;;;22.43;11.97;;;5.40;99.90;;;;;;4949771;29;20718;-66
2021/11/17 04:55:56;;;;;;;18.53;10.37;;;5.40;99.90;;;;;;4943962;29;20262;-66
2021/11/17 04:58:53;;;;;;;18.47;9.93;;;5.30;99.90;;;;;;4949352;29;20247;-66
2021/11/17 05:01:43;;;;;;;22.63;10.27;;;5.40;99.90;;;;;;4949059;28;20953;-66
2021/11/17 05:04:25;;;;;;;21.07;11.47;;;5.30;99.90;;;;;;4949764;29;20606;-66
2021/11/17 05:07:07;;;;;;;20.50;10.87;;;5.30;99.90;;;;;;4949724;29;20262;-66
2021/11/17 05:09:48;;;;;;;22.03;11.63;;;5.30;99.90;;;;;;4948813;29;20510;-66
2021/11/17 05:12:31;;;;;;;20.50;10.67;;;5.30;99.90;;;;;;4948713;29;20682;-65
2021/11/17 05:15:09;;;;;;;23.23;11.27;;;5.20;99.90;;;;;;4945796;29;20769;-66
2021/11/17 05:17:47;;;;;;;21.93;10.77;;;5.30;99.90;;;;;;4942800;29;20529;-66
2021/11/17 05:20:29;;;;;;;21.07;10.90;;;5.30;99.90;;;;;;4947882;28;20300;-66
2021/11/17 05:23:10;;;;;;;24.63;11.23;;;5.40;99.90;;;;;;4949314;29;20246;-66
2021/11/17 05:25:54;;;;;;;22.87;13.00;;;5.40;99.90;;;;;;4942648;29;20894;-66
2021/11/17 05:28:39;;;;;;;21.37;11.10;;;5.30;99.90;;;;;;4948606;29;20558;-66
2021/11/17 05:31:23;;;;;;;26.33;12.80;;;5.40;99.90;;;;;;4944253;28;20510;-66
2021/11/17 05:34:04;;;;;;;26.10;13.20;;;5.40;99.90;;;;;;4949077;29;20514;-66
2021/11/17 05:36:41;;;;;;;29.10;14.33;;;5.30;99.90;;;;;;4943645;29;20326;-66
2021/11/17 05:39:23;;;;;;;26.30;14.27;;;5.30;99.90;;;;;;4949138;29;20508;-66
2021/11/17 05:42:05;;;;;;;26.33;13.77;;;5.40;99.90;;;;;;4949170;28;20830;-65
2021/11/17 05:44:49;;;;;;;26.97;15.23;;;5.40;99.90;;;;;;4947167;29;20490;-66
2021/11/17 05:47:28;;;;;;;26.93;15.13;;;5.30;99.90;;;;;;4948588;28;20498;-66
2021/11/17 05:50:12;;;;;;;29.70;15.70;;;5.40;99.90;;;;;;4944990;28;20890;-66
2021/11/17 05:52:53;;;;;;;34.87;17.00;;;5.40;99.90;;;;;;4948931;28;20298;-66
2021/11/17 05:55:34;;;;;;;27.80;15.90;;;5.30;99.90;;;;;;4948430;29;20507;-66
2021/11/17 05:58:16;;;;;;;37.10;18.90;;;5.30;99.90;;;;;;4949038;29;20553;-66
2021/11/17 06:01:15;;;;;;;31.60;17.93;;;5.30;99.90;;;;;;4948594;28;20494;-66
2021/11/17 06:03:55;;;;;;;34.47;18.40;;;5.30;99.90;;;;;;4942621;29;20478;-66
2021/11/17 06:06:23;;;;;;;34.33;18.43;;;5.30;99.90;;;;;;4948755;29;20245;-66
2021/11/17 06:08:54;;;;;;;38.37;19.37;;;5.30;99.90;;;;;;4948846;29;20477;-66
2021/11/17 06:11:27;;;;;;;37.90;20.07;;;5.40;99.90;;;;;;4948710;28;20477;-66
2021/11/17 06:13:57;;;;;;;39.10;21.50;;;5.40;99.90;;;;;;4948581;29;20272;-66
2021/11/17 06:16:26;;;;;;;39.00;21.17;;;5.50;99.90;;;;;;4948159;29;20481;-66
2021/11/17 06:18:55;;;;;;;45.57;22.57;;;5.40;99.90;;;;;;4948616;29;21004;-66
2021/11/17 06:21:24;;;;;;;40.47;21.60;;;5.40;99.90;;;;;;4948295;29;20235;-66
2021/11/17 06:23:55;;;;;;;42.40;22.47;;;5.40;99.90;;;;;;4948559;29;20774;-66
2021/11/17 06:26:30;;;;;;;42.67;23.03;;;5.40;99.90;;;;;;4948220;28;20503;-66
2021/11/17 06:29:01;;;;;;;46.13;23.20;;;5.40;99.90;;;;;;4947381;29;20501;-66
2021/11/17 06:31:32;;;;;;;46.60;22.93;;;5.40;99.90;;;;;;4948090;28;20242;-66
2021/11/17 06:34:00;;;;;;;45.83;24.03;;;5.40;99.90;;;;;;4946845;28;20296;-65
2021/11/17 06:36:28;;;;;;;45.53;22.87;;;5.40;99.90;;;;;;4938875;29;20293;-66
2021/11/17 06:38:56;;;;;;;43.00;22.97;;;5.40;99.90;;;;;;4945076;29;20242;-66
2021/11/17 06:41:26;;;;;;;44.53;22.73;;;5.40;99.90;;;;;;4945563;28;20561;-66
2021/11/17 06:43:54;;;;;;;42.67;23.63;;;5.40;99.90;;;;;;4946627;29;20916;-66
2021/11/17 06:46:22;;;;;;;45.87;24.80;;;5.40;99.90;;;;;;4946292;28;20598;-66
2021/11/17 06:48:50;;;;;;;40.47;21.87;;;5.40;99.90;;;;;;4947056;29;20242;-66
2021/11/17 06:51:18;;;;;;;48.20;25.03;;;5.50;99.90;;;;;;4946999;29;20246;-66
2021/11/17 06:53:47;;;;;;;51.00;24.43;;;5.50;99.90;;;;;;4946020;29;20898;-66
2021/11/17 06:56:17;;;;;;;39.13;22.80;;;5.50;99.90;;;;;;4946548;28;20643;-66
2021/11/17 06:58:46;;;;;;;43.73;24.33;;;5.50;99.90;;;;;;4946228;29;20489;-66
2021/11/17 07:01:15;;;;;;;47.87;25.10;;;5.50;99.90;;;;;;4945718;28;20255;-66
2021/11/17 07:03:43;;;;;;;46.60;23.90;;;5.50;99.90;;;;;;4944576;28;20234;-66
2021/11/17 07:06:13;;;;;;;48.07;25.27;;;5.50;99.90;;;;;;4945822;29;20264;-66
2021/11/17 07:08:42;;;;;;;46.10;24.63;;;5.50;99.90;;;;;;4945787;28;20246;-66
2021/11/17 07:11:10;;;;;;;51.60;25.47;;;5.50;99.90;;;;;;4946929;28;20493;-66
2021/11/17 07:13:38;;;;;;;42.03;23.87;;;5.50;99.90;;;;;;4948807;29;20517;-66
2021/11/17 07:16:08;;;;;;;44.00;23.70;;;5.50;99.90;;;;;;4950267;29;20655;-66
2021/11/17 07:18:37;;;;;;;42.97;23.13;;;5.60;99.90;;;;;;4949919;29;20541;-66
2021/11/17 07:21:07;;;;;;;43.50;23.10;;;5.60;99.90;;;;;;4949704;29;20986;-66
2021/11/17 07:23:36;;;;;;;41.10;23.00;;;5.60;99.90;;;;;;4949376;28;20486;-66
2021/11/17 07:26:05;;;;;;;41.83;23.00;;;5.60;99.90;;;;;;4949579;29;20350;-66
2021/11/17 07:28:33;;;;;;;42.83;22.80;;;5.60;99.90;;;;;;4949601;29;20473;-66
2021/11/17 07:31:01;;;;;;;40.90;22.43;;;5.50;99.90;;;;;;4951532;29;21005;-66
2021/11/17 07:33:31;;;;;;;43.57;22.43;;;5.50;99.90;;;;;;4945755;29;20890;-64
2021/11/17 07:35:59;;;;;;;45.83;23.27;;;5.50;99.90;;;;;;4947281;28;20247;-66
2021/11/17 07:38:33;;;;;;;42.53;22.90;;;5.60;99.90;;;;;;4938660;29;20494;-66
2021/11/17 07:41:01;;;;;;;40.77;20.57;;;5.60;99.90;;;;;;4940443;28;20526;-66
2021/11/17 07:43:30;;;;;;;44.03;21.77;;;5.70;99.90;;;;;;4936435;29;20880;-66
2021/11/17 07:45:58;;;;;;;41.43;20.13;;;5.70;99.90;;;;;;4942481;28;20610;-66
2021/11/17 07:48:28;;;;;;;44.57;21.30;;;5.70;99.90;;;;;;4942936;29;20241;-66
2021/11/17 07:50:58;;;;;;;43.40;21.43;;;5.70;99.90;;;;;;4943578;29;20255;-66
2021/11/17 07:53:28;;;;;;;43.27;21.33;;;5.80;99.90;;;;;;4943891;29;20246;-66
2021/11/17 07:55:58;;;;;;;39.80;20.77;;;5.70;99.90;;;;;;4944475;28;20280;-66
2021/11/17 07:58:29;;;;;;;46.73;21.80;;;5.80;99.90;;;;;;4943050;29;20261;-66
2021/11/17 08:00:59;;;;;;;40.30;21.07;;;5.80;99.90;;;;;;4944094;28;20321;-66
2021/11/17 08:03:31;;;;;;;40.93;21.07;;;5.80;99.90;;;;;;4944358;29;20638;-66
2021/11/17 08:06:00;;;;;;;45.40;23.70;;;5.80;99.90;;;;;;4943787;29;20677;-66
2021/11/17 08:08:31;;;;;;;44.10;21.97;;;5.80;99.90;;;;;;4938074;29;20635;-66
2021/11/17 08:11:02;;;;;;;47.63;21.67;;;5.80;99.90;;;;;;4944418;29;21005;-66
2021/11/17 08:13:33;;;;;;;43.33;22.90;;;5.80;99.90;;;;;;4943612;29;20579;-66
2021/11/17 08:16:01;;;;;;;41.97;22.43;;;5.80;99.90;;;;;;4926621;29;20330;-66
2021/11/17 08:18:29;;;;;;;46.17;23.00;;;5.80;99.90;;;;;;4940969;29;20262;-66
2021/11/17 08:20:58;;;;;;;51.00;23.13;;;5.80;99.90;;;;;;4943313;29;20322;-66
2021/11/17 08:23:27;;;;;;;46.83;22.43;;;5.80;99.90;;;;;;4942774;28;20521;-66
2021/11/17 08:25:56;;;;;;;41.83;21.60;;;5.90;99.90;;;;;;4944970;29;20294;-66
2021/11/17 08:28:24;;;;;;;45.13;22.83;;;5.90;99.90;;;;;;4945070;29;20608;-66
2021/11/17 08:30:52;;;;;;;45.23;22.00;;;5.90;99.90;;;;;;4945737;29;20948;-66
2021/11/17 08:33:20;;;;;;;43.03;22.37;;;5.80;99.90;;;;;;4945466;29;20341;-66
2021/11/17 08:35:49;;;;;;;45.23;22.07;;;5.90;99.90;;;;;;4939466;28;20234;-66
2021/11/17 08:38:21;;;;;;;46.03;21.60;;;5.90;99.90;;;;;;4940498;28;20483;-66
2021/11/17 08:40:53;;;;;;;43.33;21.73;;;5.90;99.90;;;;;;4926561;29;20324;-66
2021/11/17 08:43:22;;;;;;;45.97;21.77;;;5.90;99.90;;;;;;4929417;29;20239;-65
2021/11/17 08:45:51;;;;;;;41.30;21.23;;;5.90;99.90;;;;;;4926452;28;20485;-66
2021/11/17 08:48:24;;;;;;;42.07;20.20;;;5.90;99.90;;;;;;4932016;29;20563;-66
2021/11/17 08:50:56;;;;;;;42.10;20.20;;;6.00;99.90;;;;;;4942850;29;20238;-65
2021/11/17 08:53:26;;;;;;;41.40;19.97;;;6.00;99.90;;;;;;4943170;29;20259;-66
2021/11/17 08:55:56;;;;;;;39.37;20.83;;;6.00;99.90;;;;;;4944127;29;20274;-65
2021/11/17 08:58:24;;;;;;;42.03;20.67;;;6.00;99.90;;;;;;4943168;29;20485;-66
2021/11/17 09:00:53;;;;;;;38.07;20.37;;;6.00;99.90;;;;;;4942786;29;20298;-65
2021/11/17 09:03:23;;;;;;;41.40;20.83;;;6.10;99.90;;;;;;4942905;29;20284;-66
2021/11/17 09:05:54;;;;;;;39.47;20.17;;;6.00;99.90;;;;;;4943035;29;20325;-65
2021/11/17 09:08:24;;;;;;;38.27;20.73;;;6.00;99.90;;;;;;4943175;29;20510;-65
2021/11/17 09:10:58;;;;;;;38.20;20.60;;;6.10;99.90;;;;;;4941882;28;20242;-66
2021/11/17 09:13:26;;;;;;;41.93;21.00;;;6.10;99.90;;;;;;4941335;29;20621;-66
2021/11/17 09:15:57;;;;;;;39.90;20.57;;;6.10;99.90;;;;;;4944267;29;20353;-66
2021/11/17 09:18:28;;;;;;;40.87;19.90;;;6.10;99.90;;;;;;4944367;29;20680;-66
2021/11/17 09:20:56;;;;;;;43.13;20.90;;;6.10;99.90;;;;;;4944667;29;20250;-66
2021/11/17 09:23:26;;;;;;;40.43;20.83;;;6.20;99.90;;;;;;4943700;29;20246;-66
2021/11/17 09:25:59;;;;;;;38.30;20.57;;;6.20;99.90;;;;;;4943610;28;20581;-66
2021/11/17 09:28:30;;;;;;;39.27;19.87;;;6.20;99.90;;;;;;4941031;29;20245;-66
2021/11/17 09:30:59;;;;;;;40.87;20.70;;;6.20;99.90;;;;;;4944578;28;20274;-66
2021/11/17 09:33:35;;;;;;;44.40;21.67;;;6.20;99.90;;;;;;4943551;29;20256;-66
2021/11/17 09:36:04;;;;;;;44.27;22.73;;;6.20;99.90;;;;;;4943330;28;20285;-66
2021/11/17 09:38:32;;;;;;;47.17;23.47;;;6.20;99.90;;;;;;4944343;28;20246;-66
2021/11/17 09:41:05;;;;;;;47.13;22.33;;;6.20;99.90;;;;;;4950010;28;20677;-65
2021/11/17 09:43:37;;;;;;;45.80;23.47;;;6.20;99.90;;;;;;4936852;28;20318;-65
2021/11/17 09:46:08;;;;;;;46.87;23.17;;;6.30;99.90;;;;;;4945331;28;20235;-65
2021/11/17 09:48:39;;;;;;;47.40;22.57;;;6.30;99.90;;;;;;4935380;29;20602;-66
2021/11/17 09:51:10;;;;;;;42.07;22.60;;;6.40;99.90;;;;;;4943758;29;20250;-65
2021/11/17 09:53:44;;;;;;;47.83;23.43;;;6.40;99.90;;;;;;4943049;28;20243;-66
2021/11/17 09:56:17;;;;;;;43.73;22.93;;;6.40;99.90;;;;;;4943921;29;20697;-66
2021/11/17 09:58:48;;;;;;;44.03;23.07;;;6.40;99.90;;;;;;4942165;29;20322;-66
2021/11/17 10:01:19;;;;;;;42.70;22.33;;;6.40;99.90;;;;;;4943733;28;20271;-66
2021/11/17 10:03:52;;;;;;;39.57;22.37;;;6.40;99.90;;;;;;4943593;29;20302;-65
2021/11/17 10:09:40;;;;;;;43.60;23.20;;;6.50;99.90;;;;;;4920379;29;20257;-63
2021/11/17 10:15:11;;;;;;;43.53;21.43;;;6.50;99.90;;;;;;4943208;28;20246;-63
2021/11/17 10:17:46;;;;;;;41.10;21.67;;;6.50;99.90;;;;;;4943172;29;20250;-63
2021/11/17 10:20:19;;;;;;;42.97;23.23;;;6.50;99.90;;;;;;4942964;29;20246;-63
2021/11/17 10:22:49;;;;;;;44.63;23.87;;;6.60;99.90;;;;;;4943029;29;20247;-63
2021/11/17 10:25:22;;;;;;;46.60;23.73;;;6.60;99.90;;;;;;4943014;29;20330;-63
2021/11/17 10:27:57;;;;;;;44.83;24.70;;;6.60;99.90;;;;;;4943416;29;20715;-63
2021/11/17 10:30:33;;;;;;;45.73;24.17;;;6.60;99.90;;;;;;4943412;29;20313;-63
2021/11/17 10:33:09;;;;;;;49.60;25.50;;;6.60;99.90;;;;;;4939393;29;20976;-63
2021/11/17 10:35:39;;;;;;;46.50;25.57;;;6.60;99.90;;;;;;4936122;29;20330;-63
2021/11/17 10:38:12;;;;;;;49.03;26.03;;;6.60;99.90;;;;;;4943476;29;20266;-63
2021/11/17 10:40:48;;;;;;;53.00;25.20;;;6.70;99.90;;;;;;4942457;28;20294;-63
2021/11/17 10:43:21;;;;;;;50.63;26.00;;;6.70;99.90;;;;;;4941546;29;20270;-63
2021/11/17 10:46:08;;;;;;;51.13;26.73;;;6.70;99.90;;;;;;4942325;28;20233;-63
2021/11/17 10:48:39;;;;;;;56.33;28.37;;;6.70;99.90;;;;;;4939211;29;20234;-63
2021/11/17 10:51:14;;;;;;;55.57;28.70;;;6.70;99.90;;;;;;4942925;29;20251;-63
2021/11/17 10:53:47;;;;;;;56.77;29.13;;;6.70;99.90;;;;;;4939965;28;20238;-63
2021/11/17 10:56:17;;;;;;;54.37;27.30;;;6.80;99.90;;;;;;4941711;29;20246;-63
2021/11/17 10:58:51;;;;;;;53.03;28.43;;;6.80;99.90;;;;;;4941711;29;20235;-63
2021/11/17 11:01:21;;;;;;;52.73;26.80;;;6.80;99.90;;;;;;4941278;29;20769;-63
2021/11/17 11:03:53;;;;;;;56.53;28.27;;;6.90;99.90;;;;;;4940827;29;20310;-63
2021/11/17 11:06:25;;;;;;;54.60;27.60;;;6.90;99.90;;;;;;4941360;29;20329;-63
2021/11/17 11:09:08;;;;;;;54.50;29.00;;;6.90;99.90;;;;;;4941439;29;20325;-63
2021/11/17 11:11:41;;;;;;;55.33;29.37;;;7.00;99.90;;;;;;4934439;29;20243;-63
2021/11/17 11:14:14;;;;;;;57.50;27.23;;;7.00;99.90;;;;;;4941839;29;20325;-63
2021/11/17 11:16:45;;;;;;;51.47;27.60;;;7.10;99.90;;;;;;4942472;29;20254;-63
2021/11/17 11:19:29;;;;;;;52.60;27.20;;;7.10;99.90;;;;;;4941861;29;20247;-63
2021/11/17 11:22:14;;;;;;;52.47;26.73;;;7.20;99.90;;;;;;4937203;28;20357;-63
2021/11/17 11:24:45;;;;;;;58.30;27.70;;;7.20;99.90;;;;;;4940110;29;20739;-63
2021/11/17 11:27:21;;;;;;;53.97;28.70;;;7.20;99.90;;;;;;4941335;29;20310;-63
2021/11/17 11:30:12;;;;;;;53.07;27.60;;;7.20;99.90;;;;;;4936889;29;20781;-63
2021/11/17 11:32:52;;;;;;;57.07;27.90;;;7.20;99.90;;;;;;4937837;28;20715;-63
2021/11/17 11:35:24;;;;;;;54.53;26.20;;;7.30;99.90;;;;;;4940139;29;20246;-63
2021/11/17 11:38:08;;;;;;;53.43;26.40;;;7.30;99.90;;;;;;4941336;29;20259;-62
2021/11/17 11:41:15;;;;;;;51.10;26.10;;;7.40;99.90;;;;;;4938769;29;20326;-62
2021/11/17 11:43:44;;;;;;;51.33;26.50;;;7.40;99.90;;;;;;4935051;28;21075;-63
2021/11/17 11:46:24;;;;;;;56.17;27.90;;;7.40;99.90;;;;;;4940809;28;20243;-63
2021/11/17 11:49:07;;;;;;;53.40;26.93;;;7.50;99.90;;;;;;4940455;29;20246;-63
2021/11/17 11:52:14;;;;;;;47.07;25.03;;;7.50;99.90;;;;;;4936920;28;20270;-62
2021/11/17 11:55:13;;;;;;;50.60;26.40;;;7.60;99.90;;;;;;4939167;28;20707;-62
2021/11/17 11:57:45;;;;;;;46.80;24.50;;;7.70;99.90;;;;;;4937673;28;20298;-63
2021/11/17 12:00:17;;;;;;;49.53;26.63;;;7.80;99.90;;;;;;4943505;29;20334;-63
2021/11/17 12:02:50;;;;;;;51.20;26.53;;;7.80;99.90;;;;;;4942348;29;20247;-62
2021/11/17 12:05:33;;;;;;;50.37;27.27;;;7.80;99.90;;;;;;4942993;29;20247;-63
2021/11/17 12:08:09;;;;;;;50.33;25.83;;;7.80;99.90;;;;;;4941533;29;20286;-63
2021/11/17 12:10:41;;;;;;;48.50;24.33;;;7.80;99.90;;;;;;4943768;29;20243;-62
2021/11/17 12:13:12;;;;;;;48.23;24.87;;;7.90;99.90;;;;;;4942890;29;20258;-62
2021/11/17 12:15:42;;;;;;;46.23;24.20;;;7.90;99.90;;;;;;4941415;28;20545;-62
2021/11/17 12:18:13;;;;;;;46.67;24.53;;;8.00;99.90;;;;;;4941677;29;20243;-62
2021/11/17 12:20:47;;;;;;;47.50;24.53;;;8.00;99.90;;;;;;4938551;29;20623;-62
2021/11/17 12:23:20;;;;;;;43.03;23.63;;;8.10;99.90;;;;;;4942052;29;20251;-62
2021/11/17 12:26:07;;;;;;;43.63;24.17;;;8.10;99.90;;;;;;4939123;29;20318;-62
2021/11/17 12:28:44;;;;;;;41.77;23.57;;;8.20;99.90;;;;;;4942281;28;20266;-62
2021/11/17 12:31:15;;;;;;;46.17;23.70;;;8.20;99.90;;;;;;4942659;29;20869;-61
2021/11/17 12:33:47;;;;;;;44.90;23.63;;;8.20;99.90;;;;;;4938173;29;20757;-62
2021/11/17 12:36:21;;;;;;;39.03;21.67;;;8.20;99.90;;;;;;4943295;28;20998;-61
2021/11/17 12:38:51;;;;;;;40.33;22.53;;;8.20;99.90;;;;;;4944542;29;20604;-62
2021/11/17 12:41:25;;;;;;;40.70;22.67;;;8.10;99.90;;;;;;4945640;28;20227;-62
2021/11/17 12:44:00;;;;;;;40.97;22.90;;;8.10;99.90;;;;;;4945320;29;20751;-62
2021/11/17 12:46:40;;;;;;;43.63;23.93;;;8.20;99.90;;;;;;4937116;28;20362;-63
2021/11/17 12:49:13;;;;;;;43.73;23.33;;;8.20;99.90;;;;;;4940676;29;20211;-62
2021/11/17 12:51:48;;;;;;;44.87;24.07;;;8.20;99.90;;;;;;4941539;29;20262;-62
2021/11/17 12:54:22;;;;;;;48.90;24.57;;;8.20;99.90;;;;;;4943384;28;20497;-62
2021/11/17 12:56:55;;;;;;;46.60;23.20;;;8.20;99.90;;;;;;4951229;28;20299;-62
2021/11/17 12:59:28;;;;;;;47.47;24.83;;;8.30;99.90;;;;;;4944464;28;20426;-63
2021/11/17 13:02:29;;;;;;;46.71;22.04;;;8.30;99.90;;;;;;3823491;28;10021784;-62
2021/11/17 13:05:23;;;;;;;45.17;24.63;;;8.40;99.90;;;;;;3411187;28;10002242;-62
2021/11/17 13:07:58;;;;;;;48.80;25.17;;;8.40;99.90;;;;;;4944331;28;20866;-62
2021/11/17 13:10:35;;;;;;;45.33;24.73;;;8.40;99.90;;;;;;4944098;28;20211;-62
2021/11/17 13:13:13;;;;;;;48.17;25.87;;;8.40;99.90;;;;;;4944769;28;20302;-62
2021/11/17 13:15:45;;;;;;;47.50;25.17;;;8.40;99.90;;;;;;4945835;28;20238;-62
2021/11/17 13:18:31;;;;;;;48.83;25.43;;;8.40;99.90;;;;;;4950730;28;20282;-62
2021/11/17 13:21:15;;;;;;;47.80;24.30;;;8.40;99.90;;;;;;4948566;28;20814;-62
2021/11/17 13:23:48;;;;;;;47.03;23.73;;;8.40;99.90;;;;;;4946774;28;20693;-62
2021/11/17 13:26:26;;;;;;;47.33;24.93;;;8.50;99.90;;;;;;4946121;28;20250;-63
2021/11/17 13:28:55;;;;;;;47.13;26.10;;;8.60;99.90;;;;;;4942996;28;20688;-62
2021/11/17 13:31:34;;;;;;;47.50;26.30;;;8.60;99.90;;;;;;4945663;28;20223;-62
2021/11/17 13:34:06;;;;;;;47.50;23.40;;;8.60;99.90;;;;;;4942402;28;20254;-62
2021/11/17 13:36:45;;;;;;;44.77;23.27;;;8.60;99.90;;;;;;4948750;28;20279;-62
2021/11/17 13:39:17;;;;;;;48.50;22.87;;;8.70;99.90;;;;;;4949267;28;20342;-63
2021/11/17 13:41:47;;;;;;;47.50;24.67;;;8.70;99.90;;;;;;4944022;28;20728;-63
2021/11/17 13:44:19;;;;;;;43.43;23.77;;;8.80;99.90;;;;;;4942468;28;20211;-62
2021/11/17 13:46:55;;;;;;;44.73;23.30;;;8.90;99.90;;;;;;4940107;28;20292;-62
2021/11/17 13:49:23;;;;;;;51.90;24.00;;;9.00;99.90;;;;;;4939493;28;20306;-63
2021/11/17 13:51:51;;;;;;;41.13;22.77;;;9.10;99.90;;;;;;4941092;28;20200;-63
2021/11/17 13:54:45;;;;;;;46.80;23.07;;;9.20;99.90;;;;;;4937167;28;20211;-62
2021/11/17 13:57:17;;;;;;;43.63;23.27;;;9.20;99.90;;;;;;4939224;28;20227;-63
2021/11/17 13:59:46;;;;;;;41.70;22.73;;;9.20;99.90;;;;;;4939985;28;20202;-62
2021/11/17 14:02:15;;;;;;;43.97;22.80;;;9.10;99.90;;;;;;4939247;28;20271;-62
2021/11/17 14:04:44;;;;;;;41.03;22.50;;;9.10;99.90;;;;;;4943459;28;20611;-63
2021/11/17 14:07:14;;;;;;;44.50;24.40;;;9.10;99.90;;;;;;4939592;28;20274;-63
2021/11/17 14:09:43;;;;;;;42.43;21.93;;;9.10;99.90;;;;;;4942783;28;20282;-63
2021/11/17 14:12:13;;;;;;;46.50;23.90;;;9.10;99.90;;;;;;4942801;28;20762;-63
2021/11/17 14:14:41;;;;;;;37.23;20.80;;;9.10;99.90;;;;;;4943991;28;20246;-62
2021/11/17 14:17:10;;;;;;;40.37;21.33;;;9.10;99.90;;;;;;4942566;28;20329;-63
2021/11/17 14:19:39;;;;;;;44.67;22.93;;;9.00;99.90;;;;;;4943157;28;20832;-63
2021/11/17 14:22:08;;;;;;;41.17;21.63;;;9.00;99.90;;;;;;4937579;28;20911;-63
2021/11/17 14:24:37;;;;;;;43.73;22.20;;;9.00;99.90;;;;;;4941119;28;20416;-62
2021/11/17 14:27:07;;;;;;;42.37;21.73;;;9.00;99.90;;;;;;4942843;28;20203;-64
2021/11/17 14:29:41;;;;;;;43.95;26.60;;;8.90;99.90;;;;;;4944528;28;20444;-64
2021/11/17 14:32:13;;;;;;;37.73;20.93;;;8.80;99.90;;;;;;4944988;28;20502;-64
2021/11/17 14:34:41;;;;;;;42.37;20.83;;;8.80;99.90;;;;;;4942988;28;20326;-64
2021/11/17 14:37:10;;;;;;;39.87;21.23;;;8.80;99.90;;;;;;4935555;29;20238;-65
2021/11/17 14:39:40;;;;;;;43.30;21.57;;;8.80;99.90;;;;;;4935369;29;20211;-64
2021/11/17 14:42:11;;;;;;;39.30;20.03;;;8.80;99.90;;;;;;4935427;28;20262;-64
2021/11/17 14:44:41;;;;;;;37.77;19.60;;;8.80;99.90;;;;;;4933760;29;20236;-64
2021/11/17 14:47:10;;;;;;;40.20;21.13;;;8.80;99.90;;;;;;4934887;28;20239;-64
2021/11/17 14:49:39;;;;;;;36.07;20.50;;;8.80;99.90;;;;;;4939328;28;20235;-64
2021/11/17 14:52:10;;;;;;;37.23;19.87;;;8.80;99.90;;;;;;4937654;28;20279;-63
2021/11/17 14:54:38;;;;;;;40.43;19.50;;;8.70;99.90;;;;;;4938827;28;20235;-64
2021/11/17 14:57:07;;;;;;;37.90;19.93;;;8.80;99.90;;;;;;4939945;28;20627;-63
2021/11/17 14:59:36;;;;;;;40.63;20.65;;;8.80;99.90;;;;;;4937118;28;20559;-63
2021/11/17 15:02:07;;;;;;;43.53;21.40;;;8.80;99.90;;;;;;4933009;28;20882;-62
2021/11/17 15:04:36;;;;;;;42.23;19.43;;;8.80;99.90;;;;;;4940113;28;20246;-61
2021/11/17 15:07:07;;;;;;;41.67;20.97;;;8.80;99.90;;;;;;4941298;28;20796;-62
2021/11/17 15:09:45;;;;;;;34.09;17.60;;;8.80;99.90;;;;;;3806565;28;10023880;-63
2021/11/17 15:12:16;;;;;;;38.58;19.85;;;8.80;99.90;;;;;;2378934;28;10002124;-63
2021/11/17 15:14:45;;;;;;;34.70;19.53;;;8.80;99.90;;;;;;4945981;28;20231;-63
2021/11/17 15:17:16;;;;;;;40.20;20.57;;;8.80;99.90;;;;;;4944852;28;20583;-63
2021/11/17 15:19:45;;;;;;;42.10;20.97;;;8.80;99.90;;;;;;4946539;28;20318;-62
2021/11/17 15:22:14;;;;;;;43.70;20.70;;;8.70;99.90;;;;;;4943740;28;20239;-62
2021/11/17 15:24:43;;;;;;;38.67;20.73;;;8.70;99.90;;;;;;4946834;28;20262;-62
2021/11/17 15:27:13;;;;;;;37.83;19.37;;;8.60;99.90;;;;;;4943887;28;20250;-62
2021/11/17 15:29:43;;;;;;;38.87;18.97;;;8.50;99.90;;;;;;4944704;28;20507;-62
2021/11/17 15:32:11;;;;;;;37.87;18.87;;;8.50;99.90;;;;;;4936614;28;20538;-62
2021/11/17 15:34:40;;;;;;;39.33;18.67;;;8.50;99.90;;;;;;4938214;28;20733;-62
2021/11/17 15:37:09;;;;;;;38.00;18.00;;;8.50;99.90;;;;;;4950305;28;20615;-61
2021/11/17 15:39:38;;;;;;;33.17;18.07;;;8.40;99.90;;;;;;4946694;28;20323;-62
2021/11/17 15:42:07;;;;;;;33.27;17.73;;;8.40;99.90;;;;;;4941717;28;20603;-62
2021/11/17 15:44:36;;;;;;;35.40;18.57;;;8.40;99.90;;;;;;4947112;28;20326;-61
2021/11/17 15:47:07;;;;;;;35.13;18.80;;;8.40;99.90;;;;;;4940916;28;20596;-62
2021/11/17 15:49:36;;;;;;;37.33;19.30;;;8.40;99.90;;;;;;4950432;28;20329;-61
2021/11/17 15:52:07;;;;;;;42.57;19.13;;;8.40;99.90;;;;;;4940058;28;20239;-62
2021/11/17 15:54:35;;;;;;;39.97;18.47;;;8.40;99.90;;;;;;4940286;28;20254;-63